1897 NOT_NAMED (1897060S14067)


IBTrACS version v04r00. Visit IBTrACS website for data access.
Please direct all questions to the IBTrACS Q and A forum

Storm track - Intensity - Wind Radii - Intensity Data - Source Data - All data

Summary Information

Storm ID 1897060S14067
Start Mar 1 06Z
End Mar 7 06Z
ATCF IDs
Track status Best track data.

Storm track plot

Map of storm track

Intensity plots

No Intensity information for this storm


Radial wind information

No radial wind information for this storm


Position and Intensity Table

BASIN ISO_TIME_________ NATURE LAT LON
degrees north degrees east
SI 1897-03-01 06:00:00 NR -14.30 66.90
SI 09:00:00 NR -14.32 66.89
SI 12:00:00 NR -14.35 66.86
SI 15:00:00 NR -14.38 66.83
SI 18:00:00 NR -14.43 66.77
SI 21:00:00 NR -14.51 66.69
SI 1897-03-02 00:00:00 NR -14.60 66.57
SI 03:00:00 NR -14.73 66.41
SI 06:00:00 NR -14.90 66.20
SI 09:00:00 NR -15.11 65.94
SI 12:00:00 NR -15.34 65.64
SI 15:00:00 NR -15.61 65.31
SI 18:00:00 NR -15.89 64.99
SI 21:00:00 NR -16.17 64.67
SI 1897-03-03 00:00:00 NR -16.46 64.39
SI 03:00:00 NR -16.74 64.16
SI 06:00:00 NR -17.00 64.00
SI 09:00:00 NR -17.20 63.96
SI 12:00:00 NR -17.39 63.98
SI 15:00:00 NR -17.57 64.06
SI 18:00:00 NR -17.74 64.19
SI 21:00:00 NR -17.92 64.34
SI 1897-03-04 00:00:00 NR -18.10 64.52
SI 03:00:00 NR -18.29 64.71
SI 06:00:00 NR -18.50 64.90
SI 09:00:00 NR -18.72 65.03
SI 12:00:00 NR -18.96 65.16
SI 15:00:00 NR -19.21 65.30
SI 18:00:00 NR -19.47 65.45
SI 21:00:00 NR -19.75 65.61
SI 1897-03-05 00:00:00 NR -20.05 65.79
SI 03:00:00 NR -20.36 65.99
SI 06:00:00 NR -20.70 66.20
SI 09:00:00 NR -21.10 66.47
SI 12:00:00 NR -21.53 66.77
SI 15:00:00 NR -21.97 67.08
SI 18:00:00 NR -22.41 67.39
SI 21:00:00 NR -22.83 67.71
SI 1897-03-06 00:00:00 NR -23.23 68.00
SI 03:00:00 NR -23.59 68.27
SI 06:00:00 NR -23.90 68.50
SI 09:00:00 NR -24.14 68.68
SI 12:00:00 NR -24.33 68.83
SI 15:00:00 NR -24.47 68.93
SI 18:00:00 NR -24.56 69.00
SI 21:00:00 NR -24.63 69.05
SI 1897-03-07 00:00:00 NR -24.66 69.08
SI 03:00:00 NR -24.69 69.09
SI 06:00:00 NR -24.70 69.10

Source Information

Agency Information
USA
TOKYO
CMA
HKO
NEWDELHI
REUNION WMO-Best-Tracks.txt:Line=1788:xxxx897262
BOM
NADI
WELLINGTON
DS824
TD9636
TD9635
NEUMANN
MLC

All available IBTrACS Data

SEASON BASIN SUBBASIN ISO_TIME_________ NATURE LAT LON WMO AGENCY DIST2LAND LANDFALL IFLAG USA SSHS REUNION LAT REUNION LON REUNION TYPE REUNION TNUM STORM SPEED STORM DIR
Year degrees north degrees east km km 1 degrees north degrees east 1 kts degrees
1897 SI MM 1897-03-01 06:00:00 NR -14.30 66.90 reunion 1172 1172 _____O________ -1 -14.30 66.90 99 9.90 0 0
1897 SI MM 09:00:00 NR -14.32 66.89 1172 1172 _____P________ -1 -14.32 66.89 99 1 215
1897 SI MM 12:00:00 NR -14.35 66.86 1172 1157 _____P________ -1 -14.35 66.86 99 1 219
1897 SI MM 15:00:00 NR -14.38 66.83 1157 1157 _____P________ -1 -14.38 66.83 99 1 226
1897 SI MM 18:00:00 NR -14.43 66.77 1157 1142 _____P________ -1 -14.43 66.77 99 2 228
1897 SI MM 21:00:00 NR -14.51 66.69 1142 1127 _____P________ -1 -14.51 66.69 99 3 229
1897 SI MM 1897-03-02 00:00:00 NR -14.60 66.57 1127 1103 _____P________ -1 -14.60 66.57 99 4 230
1897 SI MM 03:00:00 NR -14.73 66.41 1103 1072 _____P________ -1 -14.73 66.41 99 5 230
1897 SI MM 06:00:00 NR -14.90 66.20 reunion 1072 1042 _____O________ -1 -14.90 66.20 99 9.90 6 231
1897 SI MM 09:00:00 NR -15.11 65.94 1033 1003 _____P________ -1 -15.11 65.94 99 7 231
1897 SI MM 12:00:00 NR -15.34 65.64 994 948 _____P________ -1 -15.34 65.64 99 8 230
1897 SI MM 15:00:00 NR -15.61 65.31 948 903 _____P________ -1 -15.61 65.31 99 8 229
1897 SI MM 18:00:00 NR -15.89 64.99 903 858 _____P________ -1 -15.89 64.99 99 8 227
1897 SI MM 21:00:00 NR -16.17 64.67 858 819 _____P________ -1 -16.17 64.67 99 8 225
1897 SI MM 1897-03-03 00:00:00 NR -16.46 64.39 813 784 _____P________ -1 -16.46 64.39 99 8 221
1897 SI MM 03:00:00 NR -16.74 64.16 784 749 _____P________ -1 -16.74 64.16 99 7 215
1897 SI MM 06:00:00 NR -17.00 64.00 reunion 749 738 _____O________ -1 -17.00 64.00 99 9.90 5 202
1897 SI MM 09:00:00 NR -17.20 63.96 738 728 _____P________ -1 -17.20 63.96 99 4 184
1897 SI MM 12:00:00 NR -17.39 63.98 728 723 _____P________ -1 -17.39 63.98 99 4 165
1897 SI MM 15:00:00 NR -17.57 64.06 728 723 _____P________ -1 -17.57 64.06 99 4 151
1897 SI MM 18:00:00 NR -17.74 64.19 732 728 _____P________ -1 -17.74 64.19 99 4 143
1897 SI MM 21:00:00 NR -17.92 64.34 733 733 _____P________ -1 -17.92 64.34 99 5 139
1897 SI MM 1897-03-04 00:00:00 NR -18.10 64.52 745 745 _____P________ -1 -18.10 64.52 99 5 137
1897 SI MM 03:00:00 NR -18.29 64.71 757 757 _____P________ -1 -18.29 64.71 99 5 138
1897 SI MM 06:00:00 NR -18.50 64.90 reunion 771 768 _____O________ -1 -18.50 64.90 99 9.90 5 145
1897 SI MM 09:00:00 NR -18.72 65.03 775 772 _____P________ -1 -18.72 65.03 99 5 152
1897 SI MM 12:00:00 NR -18.96 65.16 788 786 _____P________ -1 -18.96 65.16 99 6 152
1897 SI MM 15:00:00 NR -19.21 65.30 794 792 _____P________ -1 -19.21 65.30 99 6 152
1897 SI MM 18:00:00 NR -19.47 65.45 799 799 _____P________ -1 -19.47 65.45 99 6 151
1897 SI MM 21:00:00 NR -19.75 65.61 816 816 _____P________ -1 -19.75 65.61 99 7 151
1897 SI MM 1897-03-05 00:00:00 NR -20.05 65.79 835 834 _____P________ -1 -20.05 65.79 99 7 150
1897 SI MM 03:00:00 NR -20.36 65.99 854 854 _____P________ -1 -20.36 65.99 99 8 149
1897 SI MM 06:00:00 NR -20.70 66.20 reunion 875 875 _____O________ -1 -20.70 66.20 99 9.90 9 148
1897 SI MM 09:00:00 NR -21.10 66.47 909 909 _____P________ -1 -21.10 66.47 99 10 147
1897 SI MM 12:00:00 NR -21.53 66.77 944 944 _____P________ -1 -21.53 66.77 99 10 147
1897 SI MM 15:00:00 NR -21.97 67.08 982 982 _____P________ -1 -21.97 67.08 99 11 146
1897 SI MM 18:00:00 NR -22.41 67.39 1021 1021 _____P________ -1 -22.41 67.39 99 10 146
1897 SI MM 21:00:00 NR -22.83 67.71 1060 1060 _____P________ -1 -22.83 67.71 99 10 146
1897 SI MM 1897-03-06 00:00:00 NR -23.23 68.00 1101 1101 _____P________ -1 -23.23 68.00 99 9 146
1897 SI MM 03:00:00 NR -23.59 68.27 1143 1143 _____P________ -1 -23.59 68.27 99 8 145
1897 SI MM 06:00:00 NR -23.90 68.50 reunion 1172 1172 _____O________ -1 -23.90 68.50 99 9.90 7 145
1897 SI MM 09:00:00 NR -24.14 68.68 1199 1199 _____P________ -1 -24.14 68.68 99 5 146
1897 SI MM 12:00:00 NR -24.33 68.83 1215 1215 _____P________ -1 -24.33 68.83 99 4 145
1897 SI MM 15:00:00 NR -24.47 68.93 1232 1232 _____P________ -1 -24.47 68.93 99 3 145
1897 SI MM 18:00:00 NR -24.56 69.00 1246 1246 _____P________ -1 -24.56 69.00 99 2 147
1897 SI MM 21:00:00 NR -24.63 69.05 1246 1246 _____P________ -1 -24.63 69.05 99 1 144
1897 SI MM 1897-03-07 00:00:00 NR -24.66 69.08 1259 1259 _____P________ -1 -24.66 69.08 99 1 152
1897 SI MM 03:00:00 NR -24.69 69.09 1259 1259 _____P________ -1 -24.69 69.09 99 0 155
1897 SI MM 06:00:00 NR -24.70 69.10 reunion 1259 _____O________ -1 -24.70 69.10 99 9.90 0 0